sensor_id;sensor_type;location;lat;lon;timestamp;P1;durP1;ratioP1;P2;durP2;ratioP2
5379;SDS011;2713;42.680;23.310;2023-07-13T00:00:08;8.93;;;7.10;;
5379;SDS011;2713;42.680;23.310;2023-07-13T00:02:40;9.77;;;7.40;;
5379;SDS011;2713;42.680;23.310;2023-07-13T00:05:07;10.00;;;7.73;;
5379;SDS011;2713;42.680;23.310;2023-07-13T00:07:34;8.47;;;7.23;;
5379;SDS011;2713;42.680;23.310;2023-07-13T00:10:01;8.57;;;7.70;;
5379;SDS011;2713;42.680;23.310;2023-07-13T00:12:29;10.00;;;7.70;;
5379;SDS011;2713;42.680;23.310;2023-07-13T00:15:00;11.57;;;7.53;;
5379;SDS011;2713;42.680;23.310;2023-07-13T00:17:28;8.20;;;7.33;;
5379;SDS011;2713;42.680;23.310;2023-07-13T00:19:55;11.47;;;8.77;;
5379;SDS011;2713;42.680;23.310;2023-07-13T00:22:22;9.60;;;8.37;;
5379;SDS011;2713;42.680;23.310;2023-07-13T00:24:50;8.70;;;7.90;;
5379;SDS011;2713;42.680;23.310;2023-07-13T00:27:18;9.80;;;8.80;;
5379;SDS011;2713;42.680;23.310;2023-07-13T00:29:45;12.17;;;9.90;;
5379;SDS011;2713;42.680;23.310;2023-07-13T00:32:13;9.17;;;8.30;;
5379;SDS011;2713;42.680;23.310;2023-07-13T00:34:40;11.30;;;9.37;;
5379;SDS011;2713;42.680;23.310;2023-07-13T00:37:07;11.13;;;9.53;;
5379;SDS011;2713;42.680;23.310;2023-07-13T00:39:34;14.27;;;9.53;;
5379;SDS011;2713;42.680;23.310;2023-07-13T00:42:02;10.70;;;9.47;;
5379;SDS011;2713;42.680;23.310;2023-07-13T00:44:30;9.60;;;8.70;;
5379;SDS011;2713;42.680;23.310;2023-07-13T00:46:57;10.23;;;8.97;;
5379;SDS011;2713;42.680;23.310;2023-07-13T00:49:26;10.37;;;8.90;;
5379;SDS011;2713;42.680;23.310;2023-07-13T00:51:57;11.23;;;9.97;;
5379;SDS011;2713;42.680;23.310;2023-07-13T00:54:28;14.57;;;9.50;;
5379;SDS011;2713;42.680;23.310;2023-07-13T00:56:59;9.40;;;8.40;;
5379;SDS011;2713;42.680;23.310;2023-07-13T00:59:29;14.27;;;9.93;;
5379;SDS011;2713;42.680;23.310;2023-07-13T01:01:57;10.03;;;9.07;;
5379;SDS011;2713;42.680;23.310;2023-07-13T01:04:26;11.10;;;9.57;;
5379;SDS011;2713;42.680;23.310;2023-07-13T01:06:54;13.00;;;9.60;;
5379;SDS011;2713;42.680;23.310;2023-07-13T01:09:21;10.13;;;8.90;;
5379;SDS011;2713;42.680;23.310;2023-07-13T01:11:49;9.67;;;8.63;;
5379;SDS011;2713;42.680;23.310;2023-07-13T01:14:16;10.77;;;8.77;;
5379;SDS011;2713;42.680;23.310;2023-07-13T01:16:43;11.73;;;9.30;;
5379;SDS011;2713;42.680;23.310;2023-07-13T01:19:16;9.30;;;8.50;;
5379;SDS011;2713;42.680;23.310;2023-07-13T01:21:52;10.70;;;8.80;;
5379;SDS011;2713;42.680;23.310;2023-07-13T01:24:19;10.97;;;9.80;;
5379;SDS011;2713;42.680;23.310;2023-07-13T01:26:47;9.70;;;8.80;;
5379;SDS011;2713;42.680;23.310;2023-07-13T01:29:14;12.73;;;9.83;;
5379;SDS011;2713;42.680;23.310;2023-07-13T01:34:22;11.50;;;8.77;;
5379;SDS011;2713;42.680;23.310;2023-07-13T01:36:49;9.87;;;8.73;;
5379;SDS011;2713;42.680;23.310;2023-07-13T01:39:20;12.00;;;9.40;;
5379;SDS011;2713;42.680;23.310;2023-07-13T01:41:47;10.03;;;9.13;;
5379;SDS011;2713;42.680;23.310;2023-07-13T01:44:15;10.70;;;9.13;;
5379;SDS011;2713;42.680;23.310;2023-07-13T01:46:42;9.23;;;8.43;;
5379;SDS011;2713;42.680;23.310;2023-07-13T01:49:10;10.53;;;9.00;;
5379;SDS011;2713;42.680;23.310;2023-07-13T01:51:36;11.33;;;10.00;;
5379;SDS011;2713;42.680;23.310;2023-07-13T01:54:03;10.70;;;8.23;;
5379;SDS011;2713;42.680;23.310;2023-07-13T01:56:31;10.13;;;9.00;;
5379;SDS011;2713;42.680;23.310;2023-07-13T01:58:58;11.13;;;8.53;;
5379;SDS011;2713;42.680;23.310;2023-07-13T02:01:26;11.13;;;9.37;;
5379;SDS011;2713;42.680;23.310;2023-07-13T02:03:53;10.07;;;8.93;;
5379;SDS011;2713;42.680;23.310;2023-07-13T02:06:20;10.90;;;8.90;;
5379;SDS011;2713;42.680;23.310;2023-07-13T02:08:47;9.43;;;8.53;;
5379;SDS011;2713;42.680;23.310;2023-07-13T02:11:14;11.30;;;8.30;;
5379;SDS011;2713;42.680;23.310;2023-07-13T02:13:42;11.20;;;9.00;;
5379;SDS011;2713;42.680;23.310;2023-07-13T02:16:09;10.57;;;8.80;;
5379;SDS011;2713;42.680;23.310;2023-07-13T02:18:36;10.63;;;9.00;;
5379;SDS011;2713;42.680;23.310;2023-07-13T02:21:02;14.37;;;9.97;;
5379;SDS011;2713;42.680;23.310;2023-07-13T02:23:29;13.27;;;9.47;;
5379;SDS011;2713;42.680;23.310;2023-07-13T02:25:56;10.23;;;9.17;;
5379;SDS011;2713;42.680;23.310;2023-07-13T02:28:23;13.20;;;10.13;;
5379;SDS011;2713;42.680;23.310;2023-07-13T02:30:51;14.80;;;10.00;;
5379;SDS011;2713;42.680;23.310;2023-07-13T02:33:18;10.57;;;9.47;;
5379;SDS011;2713;42.680;23.310;2023-07-13T02:35:47;13.57;;;9.30;;
5379;SDS011;2713;42.680;23.310;2023-07-13T02:38:14;12.47;;;9.90;;
5379;SDS011;2713;42.680;23.310;2023-07-13T02:40:40;11.40;;;9.60;;
5379;SDS011;2713;42.680;23.310;2023-07-13T02:43:07;12.30;;;8.60;;
5379;SDS011;2713;42.680;23.310;2023-07-13T02:45:34;10.33;;;8.40;;
5379;SDS011;2713;42.680;23.310;2023-07-13T02:48:02;11.10;;;10.00;;
5379;SDS011;2713;42.680;23.310;2023-07-13T02:50:29;11.27;;;9.23;;
5379;SDS011;2713;42.680;23.310;2023-07-13T02:52:56;10.60;;;9.50;;
5379;SDS011;2713;42.680;23.310;2023-07-13T02:55:23;9.30;;;8.40;;
5379;SDS011;2713;42.680;23.310;2023-07-13T02:57:50;11.10;;;8.80;;
5379;SDS011;2713;42.680;23.310;2023-07-13T03:00:17;10.40;;;8.90;;
5379;SDS011;2713;42.680;23.310;2023-07-13T03:02:44;12.17;;;9.10;;
5379;SDS011;2713;42.680;23.310;2023-07-13T03:05:13;13.13;;;9.80;;
5379;SDS011;2713;42.680;23.310;2023-07-13T03:07:41;12.63;;;9.50;;
5379;SDS011;2713;42.680;23.310;2023-07-13T03:10:10;11.77;;;9.37;;
5379;SDS011;2713;42.680;23.310;2023-07-13T03:12:43;11.10;;;9.33;;
5379;SDS011;2713;42.680;23.310;2023-07-13T03:15:19;11.70;;;9.37;;
5379;SDS011;2713;42.680;23.310;2023-07-13T03:17:47;13.37;;;10.20;;
5379;SDS011;2713;42.680;23.310;2023-07-13T03:20:15;12.93;;;10.37;;
5379;SDS011;2713;42.680;23.310;2023-07-13T03:22:42;14.00;;;10.17;;
5379;SDS011;2713;42.680;23.310;2023-07-13T03:25:09;10.43;;;9.30;;
5379;SDS011;2713;42.680;23.310;2023-07-13T03:27:36;13.43;;;9.90;;
5379;SDS011;2713;42.680;23.310;2023-07-13T03:30:06;14.70;;;10.93;;
5379;SDS011;2713;42.680;23.310;2023-07-13T03:32:35;13.27;;;10.90;;
5379;SDS011;2713;42.680;23.310;2023-07-13T03:35:02;13.63;;;10.83;;
5379;SDS011;2713;42.680;23.310;2023-07-13T03:37:32;11.60;;;10.37;;
5379;SDS011;2713;42.680;23.310;2023-07-13T03:39:59;14.93;;;11.30;;
5379;SDS011;2713;42.680;23.310;2023-07-13T03:42:26;12.13;;;10.83;;
5379;SDS011;2713;42.680;23.310;2023-07-13T03:44:53;13.97;;;10.30;;
5379;SDS011;2713;42.680;23.310;2023-07-13T03:47:21;13.67;;;11.40;;
5379;SDS011;2713;42.680;23.310;2023-07-13T03:49:48;12.20;;;10.90;;
5379;SDS011;2713;42.680;23.310;2023-07-13T03:52:15;12.10;;;10.90;;
5379;SDS011;2713;42.680;23.310;2023-07-13T03:54:43;12.80;;;10.30;;
5379;SDS011;2713;42.680;23.310;2023-07-13T03:57:10;12.70;;;10.90;;
5379;SDS011;2713;42.680;23.310;2023-07-13T03:59:37;14.87;;;10.80;;
5379;SDS011;2713;42.680;23.310;2023-07-13T04:02:04;11.87;;;10.67;;
5379;SDS011;2713;42.680;23.310;2023-07-13T04:04:33;12.37;;;11.03;;
5379;SDS011;2713;42.680;23.310;2023-07-13T04:07:00;11.57;;;10.40;;
5379;SDS011;2713;42.680;23.310;2023-07-13T04:09:26;13.60;;;11.33;;
5379;SDS011;2713;42.680;23.310;2023-07-13T04:11:55;15.13;;;12.00;;
5379;SDS011;2713;42.680;23.310;2023-07-13T04:14:21;15.20;;;11.33;;
5379;SDS011;2713;42.680;23.310;2023-07-13T04:16:48;14.33;;;11.90;;
5379;SDS011;2713;42.680;23.310;2023-07-13T04:19:15;13.90;;;11.90;;
5379;SDS011;2713;42.680;23.310;2023-07-13T04:21:42;13.60;;;12.23;;
5379;SDS011;2713;42.680;23.310;2023-07-13T04:24:08;12.47;;;11.03;;
5379;SDS011;2713;42.680;23.310;2023-07-13T04:26:35;17.70;;;12.40;;
5379;SDS011;2713;42.680;23.310;2023-07-13T04:29:05;17.63;;;13.07;;
5379;SDS011;2713;42.680;23.310;2023-07-13T04:31:32;16.20;;;12.30;;
5379;SDS011;2713;42.680;23.310;2023-07-13T04:33:59;15.43;;;13.57;;
5379;SDS011;2713;42.680;23.310;2023-07-13T04:36:26;19.07;;;13.40;;
5379;SDS011;2713;42.680;23.310;2023-07-13T04:38:53;16.70;;;12.80;;
5379;SDS011;2713;42.680;23.310;2023-07-13T04:41:20;14.10;;;12.60;;
5379;SDS011;2713;42.680;23.310;2023-07-13T04:43:47;13.93;;;12.47;;
5379;SDS011;2713;42.680;23.310;2023-07-13T04:46:16;17.17;;;13.00;;
5379;SDS011;2713;42.680;23.310;2023-07-13T04:48:44;16.63;;;12.50;;
5379;SDS011;2713;42.680;23.310;2023-07-13T04:51:11;17.40;;;13.37;;
5379;SDS011;2713;42.680;23.310;2023-07-13T04:53:38;16.30;;;13.23;;
5379;SDS011;2713;42.680;23.310;2023-07-13T04:56:05;15.73;;;13.60;;
5379;SDS011;2713;42.680;23.310;2023-07-13T04:58:32;17.77;;;13.40;;
5379;SDS011;2713;42.680;23.310;2023-07-13T05:01:00;18.97;;;13.67;;
5379;SDS011;2713;42.680;23.310;2023-07-13T05:03:28;17.27;;;13.40;;
5379;SDS011;2713;42.680;23.310;2023-07-13T05:05:56;17.73;;;12.87;;
5379;SDS011;2713;42.680;23.310;2023-07-13T05:08:24;22.20;;;13.87;;
5379;SDS011;2713;42.680;23.310;2023-07-13T05:10:51;19.07;;;14.00;;
5379;SDS011;2713;42.680;23.310;2023-07-13T05:13:18;17.17;;;14.90;;
5379;SDS011;2713;42.680;23.310;2023-07-13T05:15:46;17.40;;;15.60;;
5379;SDS011;2713;42.680;23.310;2023-07-13T05:18:14;20.60;;;13.80;;
5379;SDS011;2713;42.680;23.310;2023-07-13T05:20:42;21.57;;;15.97;;
5379;SDS011;2713;42.680;23.310;2023-07-13T05:23:09;19.03;;;14.80;;
5379;SDS011;2713;42.680;23.310;2023-07-13T05:25:36;20.33;;;15.23;;
5379;SDS011;2713;42.680;23.310;2023-07-13T05:28:02;21.07;;;16.27;;
5379;SDS011;2713;42.680;23.310;2023-07-13T05:30:29;24.07;;;14.77;;
5379;SDS011;2713;42.680;23.310;2023-07-13T05:32:56;17.87;;;14.43;;
5379;SDS011;2713;42.680;23.310;2023-07-13T05:35:23;21.60;;;15.03;;
5379;SDS011;2713;42.680;23.310;2023-07-13T05:37:51;21.77;;;15.20;;
5379;SDS011;2713;42.680;23.310;2023-07-13T05:40:18;17.60;;;14.73;;
5379;SDS011;2713;42.680;23.310;2023-07-13T05:42:44;20.80;;;15.30;;
5379;SDS011;2713;42.680;23.310;2023-07-13T05:45:11;21.30;;;15.17;;
5379;SDS011;2713;42.680;23.310;2023-07-13T05:47:38;17.80;;;15.53;;
5379;SDS011;2713;42.680;23.310;2023-07-13T05:50:05;17.57;;;15.80;;
5379;SDS011;2713;42.680;23.310;2023-07-13T05:52:33;19.63;;;15.83;;
5379;SDS011;2713;42.680;23.310;2023-07-13T05:55:01;18.23;;;15.47;;
5379;SDS011;2713;42.680;23.310;2023-07-13T05:57:28;18.90;;;15.47;;
5379;SDS011;2713;42.680;23.310;2023-07-13T05:59:55;18.77;;;15.73;;
5379;SDS011;2713;42.680;23.310;2023-07-13T06:02:21;19.17;;;15.10;;
5379;SDS011;2713;42.680;23.310;2023-07-13T06:04:48;19.40;;;14.70;;
5379;SDS011;2713;42.680;23.310;2023-07-13T06:07:15;16.80;;;14.80;;
5379;SDS011;2713;42.680;23.310;2023-07-13T06:09:42;17.33;;;13.70;;
5379;SDS011;2713;42.680;23.310;2023-07-13T06:12:10;16.60;;;13.90;;
5379;SDS011;2713;42.680;23.310;2023-07-13T06:14:37;19.43;;;14.50;;
5379;SDS011;2713;42.680;23.310;2023-07-13T06:17:04;16.77;;;13.67;;
5379;SDS011;2713;42.680;23.310;2023-07-13T06:19:32;16.43;;;14.20;;
5379;SDS011;2713;42.680;23.310;2023-07-13T06:21:58;15.23;;;13.67;;
5379;SDS011;2713;42.680;23.310;2023-07-13T06:24:25;15.83;;;13.67;;
5379;SDS011;2713;42.680;23.310;2023-07-13T06:26:52;18.77;;;12.60;;
5379;SDS011;2713;42.680;23.310;2023-07-13T06:29:20;13.90;;;12.50;;
5379;SDS011;2713;42.680;23.310;2023-07-13T06:31:47;13.50;;;11.63;;
5379;SDS011;2713;42.680;23.310;2023-07-13T06:34:14;14.30;;;12.10;;
5379;SDS011;2713;42.680;23.310;2023-07-13T06:36:41;14.73;;;13.03;;
5379;SDS011;2713;42.680;23.310;2023-07-13T06:39:08;14.37;;;12.50;;
5379;SDS011;2713;42.680;23.310;2023-07-13T06:41:34;16.53;;;12.40;;
5379;SDS011;2713;42.680;23.310;2023-07-13T06:44:02;16.07;;;13.10;;
5379;SDS011;2713;42.680;23.310;2023-07-13T06:46:30;14.70;;;13.00;;
5379;SDS011;2713;42.680;23.310;2023-07-13T06:48:56;13.43;;;11.73;;
5379;SDS011;2713;42.680;23.310;2023-07-13T06:51:23;13.70;;;11.73;;
5379;SDS011;2713;42.680;23.310;2023-07-13T06:53:51;13.53;;;12.13;;
5379;SDS011;2713;42.680;23.310;2023-07-13T06:56:18;12.30;;;11.17;;
5379;SDS011;2713;42.680;23.310;2023-07-13T06:58:44;14.83;;;12.30;;
5379;SDS011;2713;42.680;23.310;2023-07-13T07:01:11;13.00;;;11.80;;
5379;SDS011;2713;42.680;23.310;2023-07-13T07:03:39;14.33;;;12.20;;
5379;SDS011;2713;42.680;23.310;2023-07-13T07:06:10;15.63;;;11.80;;
5379;SDS011;2713;42.680;23.310;2023-07-13T07:08:40;15.60;;;12.30;;
5379;SDS011;2713;42.680;23.310;2023-07-13T07:11:08;12.20;;;11.00;;
5379;SDS011;2713;42.680;23.310;2023-07-13T07:13:35;13.30;;;11.63;;
5379;SDS011;2713;42.680;23.310;2023-07-13T07:16:02;13.53;;;11.60;;
5379;SDS011;2713;42.680;23.310;2023-07-13T07:18:28;13.10;;;11.30;;
5379;SDS011;2713;42.680;23.310;2023-07-13T07:20:57;18.07;;;12.10;;
5379;SDS011;2713;42.680;23.310;2023-07-13T07:23:23;13.90;;;12.57;;
5379;SDS011;2713;42.680;23.310;2023-07-13T07:25:50;16.60;;;12.03;;
5379;SDS011;2713;42.680;23.310;2023-07-13T07:28:17;13.63;;;12.20;;
5379;SDS011;2713;42.680;23.310;2023-07-13T07:30:45;13.90;;;11.27;;
5379;SDS011;2713;42.680;23.310;2023-07-13T07:33:12;13.13;;;11.90;;
5379;SDS011;2713;42.680;23.310;2023-07-13T07:35:38;13.70;;;11.93;;
5379;SDS011;2713;42.680;23.310;2023-07-13T07:38:07;14.03;;;11.90;;
5379;SDS011;2713;42.680;23.310;2023-07-13T07:40:36;13.87;;;12.37;;
5379;SDS011;2713;42.680;23.310;2023-07-13T07:43:03;13.23;;;12.10;;
5379;SDS011;2713;42.680;23.310;2023-07-13T07:45:30;13.00;;;11.70;;
5379;SDS011;2713;42.680;23.310;2023-07-13T07:47:57;12.90;;;11.53;;
5379;SDS011;2713;42.680;23.310;2023-07-13T07:50:24;13.13;;;11.93;;
5379;SDS011;2713;42.680;23.310;2023-07-13T07:52:51;13.10;;;11.77;;
5379;SDS011;2713;42.680;23.310;2023-07-13T07:55:19;20.30;;;11.60;;
5379;SDS011;2713;42.680;23.310;2023-07-13T07:57:46;11.10;;;10.00;;
5379;SDS011;2713;42.680;23.310;2023-07-13T08:00:13;11.97;;;10.87;;
5379;SDS011;2713;42.680;23.310;2023-07-13T08:02:41;12.20;;;11.10;;
5379;SDS011;2713;42.680;23.310;2023-07-13T08:05:08;14.90;;;11.60;;
5379;SDS011;2713;42.680;23.310;2023-07-13T08:07:36;12.53;;;11.33;;
5379;SDS011;2713;42.680;23.310;2023-07-13T08:10:03;11.30;;;10.20;;
5379;SDS011;2713;42.680;23.310;2023-07-13T08:12:34;14.30;;;11.60;;
5379;SDS011;2713;42.680;23.310;2023-07-13T08:15:01;11.93;;;10.70;;
5379;SDS011;2713;42.680;23.310;2023-07-13T08:17:29;12.50;;;11.30;;
5379;SDS011;2713;42.680;23.310;2023-07-13T08:19:56;13.33;;;12.03;;
5379;SDS011;2713;42.680;23.310;2023-07-13T08:22:22;15.90;;;13.47;;
5379;SDS011;2713;42.680;23.310;2023-07-13T08:24:49;12.40;;;11.20;;
5379;SDS011;2713;42.680;23.310;2023-07-13T08:27:21;13.60;;;12.20;;
5379;SDS011;2713;42.680;23.310;2023-07-13T08:29:50;16.00;;;11.27;;
5379;SDS011;2713;42.680;23.310;2023-07-13T08:32:17;12.83;;;11.50;;
5379;SDS011;2713;42.680;23.310;2023-07-13T08:34:44;12.07;;;10.97;;
5379;SDS011;2713;42.680;23.310;2023-07-13T08:37:11;13.87;;;12.43;;
5379;SDS011;2713;42.680;23.310;2023-07-13T08:39:38;15.43;;;11.97;;
5379;SDS011;2713;42.680;23.310;2023-07-13T08:42:05;12.77;;;11.50;;
5379;SDS011;2713;42.680;23.310;2023-07-13T08:44:43;13.07;;;11.77;;
5379;SDS011;2713;42.680;23.310;2023-07-13T08:47:17;12.80;;;11.53;;
5379;SDS011;2713;42.680;23.310;2023-07-13T08:49:48;14.27;;;11.57;;
5379;SDS011;2713;42.680;23.310;2023-07-13T08:52:17;12.50;;;11.00;;
5379;SDS011;2713;42.680;23.310;2023-07-13T08:54:55;12.57;;;11.37;;
5379;SDS011;2713;42.680;23.310;2023-07-13T08:57:26;12.97;;;11.20;;
5379;SDS011;2713;42.680;23.310;2023-07-13T08:59:58;13.77;;;12.37;;
5379;SDS011;2713;42.680;23.310;2023-07-13T09:02:27;15.80;;;11.17;;
5379;SDS011;2713;42.680;23.310;2023-07-13T09:05:03;14.50;;;10.80;;
5379;SDS011;2713;42.680;23.310;2023-07-13T09:07:39;13.57;;;11.30;;
5379;SDS011;2713;42.680;23.310;2023-07-13T09:10:19;13.03;;;11.37;;
5379;SDS011;2713;42.680;23.310;2023-07-13T09:12:53;16.13;;;11.37;;
5379;SDS011;2713;42.680;23.310;2023-07-13T09:15:30;14.20;;;12.90;;
5379;SDS011;2713;42.680;23.310;2023-07-13T09:18:03;13.30;;;12.00;;
5379;SDS011;2713;42.680;23.310;2023-07-13T09:20:35;14.87;;;12.63;;
5379;SDS011;2713;42.680;23.310;2023-07-13T09:23:10;14.40;;;12.90;;
5379;SDS011;2713;42.680;23.310;2023-07-13T09:25:43;13.50;;;12.13;;
5379;SDS011;2713;42.680;23.310;2023-07-13T09:28:14;13.50;;;12.20;;
5379;SDS011;2713;42.680;23.310;2023-07-13T09:30:46;15.17;;;12.47;;
5379;SDS011;2713;42.680;23.310;2023-07-13T09:33:19;16.17;;;12.50;;
5379;SDS011;2713;42.680;23.310;2023-07-13T09:35:46;13.50;;;12.03;;
5379;SDS011;2713;42.680;23.310;2023-07-13T09:38:14;13.57;;;12.27;;
5379;SDS011;2713;42.680;23.310;2023-07-13T09:40:44;13.53;;;12.10;;
5379;SDS011;2713;42.680;23.310;2023-07-13T09:43:21;15.33;;;12.37;;
5379;SDS011;2713;42.680;23.310;2023-07-13T09:45:48;14.73;;;13.30;;
5379;SDS011;2713;42.680;23.310;2023-07-13T09:48:15;21.33;;;14.63;;
5379;SDS011;2713;42.680;23.310;2023-07-13T09:50:45;12.70;;;11.40;;
5379;SDS011;2713;42.680;23.310;2023-07-13T09:53:12;15.60;;;12.00;;
5379;SDS011;2713;42.680;23.310;2023-07-13T09:55:41;13.97;;;11.67;;
5379;SDS011;2713;42.680;23.310;2023-07-13T09:58:10;13.73;;;12.20;;
5379;SDS011;2713;42.680;23.310;2023-07-13T10:00:39;15.00;;;12.90;;
5379;SDS011;2713;42.680;23.310;2023-07-13T10:03:14;16.97;;;12.80;;
5379;SDS011;2713;42.680;23.310;2023-07-13T10:05:45;13.23;;;11.93;;
5379;SDS011;2713;42.680;23.310;2023-07-13T10:08:21;16.20;;;12.63;;
5379;SDS011;2713;42.680;23.310;2023-07-13T10:10:53;14.87;;;12.30;;
5379;SDS011;2713;42.680;23.310;2023-07-13T10:13:25;14.20;;;12.37;;
5379;SDS011;2713;42.680;23.310;2023-07-13T10:15:55;16.97;;;13.17;;
5379;SDS011;2713;42.680;23.310;2023-07-13T10:18:24;13.57;;;12.13;;
5379;SDS011;2713;42.680;23.310;2023-07-13T10:20:54;14.60;;;12.40;;
5379;SDS011;2713;42.680;23.310;2023-07-13T10:23:35;13.07;;;9.37;;
5379;SDS011;2713;42.680;23.310;2023-07-13T10:26:03;14.60;;;8.97;;
5379;SDS011;2713;42.680;23.310;2023-07-13T10:28:39;7.50;;;6.80;;
5379;SDS011;2713;42.680;23.310;2023-07-13T10:31:10;7.40;;;6.30;;
5379;SDS011;2713;42.680;23.310;2023-07-13T10:33:40;8.87;;;7.40;;
5379;SDS011;2713;42.680;23.310;2023-07-13T10:36:12;6.90;;;6.30;;
5379;SDS011;2713;42.680;23.310;2023-07-13T10:38:43;8.20;;;6.73;;
5379;SDS011;2713;42.680;23.310;2023-07-13T10:41:14;7.30;;;6.20;;
5379;SDS011;2713;42.680;23.310;2023-07-13T10:43:44;7.90;;;6.50;;
5379;SDS011;2713;42.680;23.310;2023-07-13T10:46:15;8.10;;;6.37;;
5379;SDS011;2713;42.680;23.310;2023-07-13T10:48:46;12.87;;;7.20;;
5379;SDS011;2713;42.680;23.310;2023-07-13T10:51:18;8.37;;;6.90;;
5379;SDS011;2713;42.680;23.310;2023-07-13T10:53:47;8.90;;;6.60;;
5379;SDS011;2713;42.680;23.310;2023-07-13T10:56:34;11.50;;;7.17;;
5379;SDS011;2713;42.680;23.310;2023-07-13T10:59:02;8.00;;;7.20;;
5379;SDS011;2713;42.680;23.310;2023-07-13T11:01:45;11.67;;;6.87;;
5379;SDS011;2713;42.680;23.310;2023-07-13T11:04:16;7.77;;;6.90;;
5379;SDS011;2713;42.680;23.310;2023-07-13T11:06:50;8.43;;;7.63;;
5379;SDS011;2713;42.680;23.310;2023-07-13T11:09:30;7.83;;;6.80;;
5379;SDS011;2713;42.680;23.310;2023-07-13T11:12:02;7.67;;;6.30;;
5379;SDS011;2713;42.680;23.310;2023-07-13T11:14:34;8.47;;;6.70;;
5379;SDS011;2713;42.680;23.310;2023-07-13T11:17:24;9.33;;;6.77;;
5379;SDS011;2713;42.680;23.310;2023-07-13T11:20:08;7.23;;;6.50;;
5379;SDS011;2713;42.680;23.310;2023-07-13T11:22:47;8.07;;;7.23;;
5379;SDS011;2713;42.680;23.310;2023-07-13T11:25:26;8.80;;;6.77;;
5379;SDS011;2713;42.680;23.310;2023-07-13T11:30:49;14.60;;;6.60;;
5379;SDS011;2713;42.680;23.310;2023-07-13T11:33:27;7.83;;;7.10;;
5379;SDS011;2713;42.680;23.310;2023-07-13T11:36:00;9.20;;;7.20;;
5379;SDS011;2713;42.680;23.310;2023-07-13T11:38:32;8.70;;;7.37;;
5379;SDS011;2713;42.680;23.310;2023-07-13T11:41:05;8.23;;;7.40;;
5379;SDS011;2713;42.680;23.310;2023-07-13T11:43:33;7.80;;;6.70;;
5379;SDS011;2713;42.680;23.310;2023-07-13T11:46:16;8.80;;;7.90;;
5379;SDS011;2713;42.680;23.310;2023-07-13T11:48:47;11.67;;;7.80;;
5379;SDS011;2713;42.680;23.310;2023-07-13T11:51:17;7.87;;;7.13;;
5379;SDS011;2713;42.680;23.310;2023-07-13T11:53:50;11.53;;;7.40;;
5379;SDS011;2713;42.680;23.310;2023-07-13T11:56:17;10.50;;;8.33;;
5379;SDS011;2713;42.680;23.310;2023-07-13T11:58:47;8.90;;;7.13;;
5379;SDS011;2713;42.680;23.310;2023-07-13T12:01:17;8.10;;;7.37;;
5379;SDS011;2713;42.680;23.310;2023-07-13T12:03:46;8.87;;;7.77;;
5379;SDS011;2713;42.680;23.310;2023-07-13T12:06:23;9.43;;;7.07;;
5379;SDS011;2713;42.680;23.310;2023-07-13T12:08:57;7.87;;;7.13;;
5379;SDS011;2713;42.680;23.310;2023-07-13T12:11:24;7.37;;;6.67;;
5379;SDS011;2713;42.680;23.310;2023-07-13T12:13:51;7.60;;;6.90;;
5379;SDS011;2713;42.680;23.310;2023-07-13T12:16:21;13.00;;;6.60;;
5379;SDS011;2713;42.680;23.310;2023-07-13T12:18:53;9.97;;;7.20;;
5379;SDS011;2713;42.680;23.310;2023-07-13T12:21:22;9.23;;;6.80;;
5379;SDS011;2713;42.680;23.310;2023-07-13T12:23:55;9.57;;;7.17;;
5379;SDS011;2713;42.680;23.310;2023-07-13T12:26:23;7.20;;;6.50;;
5379;SDS011;2713;42.680;23.310;2023-07-13T12:28:52;8.87;;;6.03;;
5379;SDS011;2713;42.680;23.310;2023-07-13T12:31:26;9.20;;;6.50;;
5379;SDS011;2713;42.680;23.310;2023-07-13T12:34:01;11.57;;;6.10;;
5379;SDS011;2713;42.680;23.310;2023-07-13T12:36:33;7.70;;;6.20;;
5379;SDS011;2713;42.680;23.310;2023-07-13T12:39:04;11.40;;;5.97;;
5379;SDS011;2713;42.680;23.310;2023-07-13T12:41:39;8.57;;;6.67;;
5379;SDS011;2713;42.680;23.310;2023-07-13T12:44:09;9.87;;;7.33;;
5379;SDS011;2713;42.680;23.310;2023-07-13T12:46:38;12.63;;;6.30;;
5379;SDS011;2713;42.680;23.310;2023-07-13T12:49:06;8.23;;;6.63;;
5379;SDS011;2713;42.680;23.310;2023-07-13T12:51:34;11.67;;;6.60;;
5379;SDS011;2713;42.680;23.310;2023-07-13T12:54:12;9.97;;;6.60;;
5379;SDS011;2713;42.680;23.310;2023-07-13T12:56:42;8.40;;;6.13;;
5379;SDS011;2713;42.680;23.310;2023-07-13T12:59:15;7.37;;;6.10;;
5379;SDS011;2713;42.680;23.310;2023-07-13T13:01:45;7.60;;;6.47;;
5379;SDS011;2713;42.680;23.310;2023-07-13T13:04:12;9.97;;;7.00;;
5379;SDS011;2713;42.680;23.310;2023-07-13T13:06:40;11.57;;;5.97;;
5379;SDS011;2713;42.680;23.310;2023-07-13T13:09:11;10.73;;;6.60;;
5379;SDS011;2713;42.680;23.310;2023-07-13T13:11:40;7.60;;;5.77;;
5379;SDS011;2713;42.680;23.310;2023-07-13T13:14:07;9.43;;;6.30;;
5379;SDS011;2713;42.680;23.310;2023-07-13T13:16:35;7.60;;;6.23;;
5379;SDS011;2713;42.680;23.310;2023-07-13T13:19:10;8.30;;;6.60;;
5379;SDS011;2713;42.680;23.310;2023-07-13T13:21:41;7.30;;;5.93;;
5379;SDS011;2713;42.680;23.310;2023-07-13T13:24:12;13.23;;;6.63;;
5379;SDS011;2713;42.680;23.310;2023-07-13T13:26:40;14.10;;;7.57;;
5379;SDS011;2713;42.680;23.310;2023-07-13T13:29:11;12.77;;;6.20;;
5379;SDS011;2713;42.680;23.310;2023-07-13T13:31:40;9.50;;;7.00;;
5379;SDS011;2713;42.680;23.310;2023-07-13T13:34:08;9.57;;;6.43;;
5379;SDS011;2713;42.680;23.310;2023-07-13T13:36:36;9.13;;;5.93;;
5379;SDS011;2713;42.680;23.310;2023-07-13T13:39:05;11.20;;;5.87;;
5379;SDS011;2713;42.680;23.310;2023-07-13T13:41:43;8.63;;;6.27;;
5379;SDS011;2713;42.680;23.310;2023-07-13T13:44:10;6.73;;;5.43;;
5379;SDS011;2713;42.680;23.310;2023-07-13T13:46:37;9.93;;;5.93;;
5379;SDS011;2713;42.680;23.310;2023-07-13T13:49:03;9.63;;;6.47;;
5379;SDS011;2713;42.680;23.310;2023-07-13T13:51:31;7.90;;;5.80;;
5379;SDS011;2713;42.680;23.310;2023-07-13T13:53:58;10.33;;;6.20;;
5379;SDS011;2713;42.680;23.310;2023-07-13T13:56:27;10.60;;;6.60;;
5379;SDS011;2713;42.680;23.310;2023-07-13T13:58:55;7.50;;;5.63;;
5379;SDS011;2713;42.680;23.310;2023-07-13T14:01:22;6.33;;;5.73;;
5379;SDS011;2713;42.680;23.310;2023-07-13T14:03:49;7.80;;;5.90;;
5379;SDS011;2713;42.680;23.310;2023-07-13T14:06:19;11.30;;;6.00;;
5379;SDS011;2713;42.680;23.310;2023-07-13T14:08:46;10.80;;;6.37;;
5379;SDS011;2713;42.680;23.310;2023-07-13T14:11:13;12.37;;;6.20;;
5379;SDS011;2713;42.680;23.310;2023-07-13T14:13:43;8.70;;;5.60;;
5379;SDS011;2713;42.680;23.310;2023-07-13T14:16:16;11.53;;;6.80;;
5379;SDS011;2713;42.680;23.310;2023-07-13T14:18:45;10.93;;;6.40;;
5379;SDS011;2713;42.680;23.310;2023-07-13T14:21:13;9.60;;;6.40;;
5379;SDS011;2713;42.680;23.310;2023-07-13T14:23:40;10.90;;;5.80;;
5379;SDS011;2713;42.680;23.310;2023-07-13T14:26:09;11.03;;;6.90;;
5379;SDS011;2713;42.680;23.310;2023-07-13T14:28:37;13.30;;;6.90;;
5379;SDS011;2713;42.680;23.310;2023-07-13T14:31:07;11.70;;;6.37;;
5379;SDS011;2713;42.680;23.310;2023-07-13T14:33:35;9.07;;;7.20;;
5379;SDS011;2713;42.680;23.310;2023-07-13T14:36:02;7.93;;;6.23;;
5379;SDS011;2713;42.680;23.310;2023-07-13T14:38:35;7.17;;;6.30;;
5379;SDS011;2713;42.680;23.310;2023-07-13T14:41:02;8.87;;;6.50;;
5379;SDS011;2713;42.680;23.310;2023-07-13T14:43:30;10.67;;;6.77;;
5379;SDS011;2713;42.680;23.310;2023-07-13T14:45:57;8.77;;;6.30;;
5379;SDS011;2713;42.680;23.310;2023-07-13T14:48:23;7.00;;;6.30;;
5379;SDS011;2713;42.680;23.310;2023-07-13T14:50:53;12.90;;;6.53;;
5379;SDS011;2713;42.680;23.310;2023-07-13T14:53:21;12.43;;;6.47;;
5379;SDS011;2713;42.680;23.310;2023-07-13T14:55:48;12.10;;;7.00;;
5379;SDS011;2713;42.680;23.310;2023-07-13T14:58:15;10.60;;;6.70;;
5379;SDS011;2713;42.680;23.310;2023-07-13T15:00:42;8.60;;;6.70;;